Time;durP1;ratioP1;P1;durP2;ratioP2;P2;SDS_P1;SDS_P2;PMS_P1;PMS_P2;Temp;Humidity;BMP_temperature;BMP_pressure;BME280_temperature;BME280_humidity;BME280_pressure;Samples;Min_cycle;Max_cycle;Signal;HPM_P1;HPM_P2
2022/04/16 00:00:56;;;;;;;7.70;3.65;;;13.90;64.60;;;;;;5009956;28;20188;-77
2022/04/16 00:03:23;;;;;;;4.03;3.65;;;13.80;64.90;;;;;;5013457;28;20184;-77
2022/04/16 00:05:51;;;;;;;3.70;3.30;;;13.70;65.50;;;;;;5011964;28;21003;-77
2022/04/16 00:08:18;;;;;;;3.75;3.53;;;13.70;65.20;;;;;;5006648;28;20200;-76
2022/04/16 00:10:44;;;;;;;3.90;3.22;;;13.60;64.30;;;;;;5009182;28;20195;-76
2022/04/16 00:13:11;;;;;;;4.50;2.72;;;13.60;64.30;;;;;;5013434;28;20185;-78
2022/04/16 00:15:38;;;;;;;2.40;2.28;;;13.50;64.80;;;;;;5010270;28;20184;-76
2022/04/16 00:18:04;;;;;;;7.78;2.80;;;13.40;64.50;;;;;;5021985;28;20221;-78
2022/04/16 00:20:31;;;;;;;2.30;2.20;;;13.30;65.40;;;;;;5006391;28;20181;-77
2022/04/16 00:22:57;;;;;;;3.58;2.05;;;13.20;64.20;;;;;;5009860;28;20184;-76
2022/04/16 00:25:23;;;;;;;1.95;1.85;;;13.10;64.90;;;;;;5009255;28;20200;-77
2022/04/16 00:27:49;;;;;;;2.80;2.60;;;13.00;65.30;;;;;;5012342;28;20213;-76
2022/04/16 00:30:17;;;;;;;3.97;2.35;;;13.00;64.90;;;;;;5007518;28;20235;-77
2022/04/16 00:32:44;;;;;;;8.07;2.33;;;12.90;64.80;;;;;;5005204;28;20300;-77
2022/04/16 00:35:10;;;;;;;2.38;2.28;;;12.90;64.30;;;;;;5014166;28;20188;-77
2022/04/16 00:37:37;;;;;;;3.03;2.38;;;12.80;63.40;;;;;;5007103;28;20216;-76
2022/04/16 00:40:03;;;;;;;2.38;2.28;;;12.80;62.50;;;;;;5006923;28;20186;-76
2022/04/16 00:42:39;;;;;;;3.47;2.60;;;12.80;64.20;;;;;;5007316;28;20177;-76
2022/04/16 00:45:06;;;;;;;4.03;2.22;;;12.80;63.80;;;;;;5007769;28;20290;-76
2022/04/16 00:47:32;;;;;;;3.17;2.55;;;12.80;65.20;;;;;;5008661;28;20189;-78
2022/04/16 00:49:57;;;;;;;5.65;3.42;;;12.80;63.80;;;;;;5014458;28;20185;-78
2022/04/16 00:52:24;;;;;;;7.82;3.50;;;12.80;67.20;;;;;;5009109;28;20185;-76
2022/04/16 00:54:51;;;;;;;4.30;3.20;;;12.80;63.90;;;;;;5006427;28;20181;-78
2022/04/16 00:57:17;;;;;;;5.40;3.15;;;12.70;65.40;;;;;;5014567;28;20212;-78
2022/04/16 00:59:43;;;;;;;4.05;3.25;;;12.70;64.00;;;;;;5007048;28;20172;-77
2022/04/16 01:02:10;;;;;;;3.65;3.35;;;12.70;65.30;;;;;;5012214;28;20585;-76
2022/04/16 01:04:36;;;;;;;4.15;3.72;;;12.70;66.30;;;;;;5007727;28;20673;-76
2022/04/16 01:07:01;;;;;;;4.50;3.20;;;12.70;65.30;;;;;;5011059;28;20191;-76
2022/04/16 01:09:27;;;;;;;8.85;3.65;;;12.70;64.90;;;;;;5014067;28;20192;-75
2022/04/16 01:11:53;;;;;;;3.75;3.45;;;12.70;65.30;;;;;;5014578;28;20895;-76
2022/04/16 01:14:21;;;;;;;4.90;4.32;;;12.70;65.50;;;;;;5008964;28;20246;-76
2022/04/16 01:16:47;;;;;;;4.05;3.63;;;12.60;65.30;;;;;;5014125;28;20255;-76
2022/04/16 01:19:14;;;;;;;3.50;3.30;;;12.60;66.20;;;;;;5014669;28;20180;-76
2022/04/16 01:21:40;;;;;;;4.70;3.40;;;12.60;65.50;;;;;;5019262;28;20185;-76
2022/04/16 01:24:06;;;;;;;3.80;3.50;;;12.60;66.20;;;;;;5012475;28;20189;-76
2022/04/16 01:26:32;;;;;;;3.78;3.35;;;12.60;64.70;;;;;;5009719;28;20184;-76
2022/04/16 01:28:58;;;;;;;5.22;3.70;;;12.60;66.40;;;;;;5011069;28;20195;-76
2022/04/16 01:31:24;;;;;;;4.20;3.90;;;12.50;66.50;;;;;;5017761;28;20193;-77
2022/04/16 01:33:49;;;;;;;4.75;4.13;;;12.50;67.70;;;;;;5014818;28;20181;-77
2022/04/16 01:36:15;;;;;;;6.78;4.32;;;12.50;67.50;;;;;;5008263;28;20312;-76
2022/04/16 01:38:41;;;;;;;4.55;4.10;;;12.50;67.90;;;;;;5010037;28;20718;-76
2022/04/16 01:41:06;;;;;;;6.00;4.00;;;12.50;67.50;;;;;;5012401;28;20188;-76
2022/04/16 01:43:32;;;;;;;4.57;3.85;;;12.40;67.80;;;;;;5010884;28;20295;-77
2022/04/16 01:45:58;;;;;;;6.10;4.35;;;12.30;68.20;;;;;;5012925;28;20192;-77
2022/04/16 01:48:27;;;;;;;4.32;3.50;;;12.20;69.40;;;;;;5013401;28;20191;-77
2022/04/16 01:50:54;;;;;;;3.95;3.38;;;12.20;69.00;;;;;;5016463;28;20177;-76
2022/04/16 01:53:21;;;;;;;12.20;3.60;;;12.10;69.70;;;;;;5012190;28;20193;-75
2022/04/16 01:55:47;;;;;;;3.43;3.23;;;12.00;70.20;;;;;;5017624;28;20181;-76
2022/04/16 01:58:14;;;;;;;4.53;3.73;;;11.90;69.20;;;;;;5012130;28;20754;-77
2022/04/16 02:00:40;;;;;;;6.03;3.45;;;11.80;70.70;;;;;;5012410;28;20185;-76
2022/04/16 02:03:07;;;;;;;3.53;3.30;;;11.70;69.80;;;;;;5010714;28;20276;-77
2022/04/16 02:05:33;;;;;;;2.97;2.70;;;11.60;69.70;;;;;;5013568;28;20196;-77
2022/04/16 02:07:59;;;;;;;5.50;3.10;;;11.60;70.30;;;;;;5013963;28;20274;-77
2022/04/16 02:10:26;;;;;;;3.30;2.80;;;11.60;70.20;;;;;;5012491;28;20225;-76
2022/04/16 02:12:51;;;;;;;11.35;3.00;;;11.60;70.20;;;;;;5013828;28;20807;-77
2022/04/16 02:15:17;;;;;;;3.07;2.73;;;11.60;69.50;;;;;;5016744;28;20184;-77
2022/04/16 02:17:43;;;;;;;6.70;3.03;;;11.50;69.90;;;;;;5012909;28;20319;-77
2022/04/16 02:20:09;;;;;;;4.87;2.70;;;11.50;69.80;;;;;;5009183;28;20193;-77
2022/04/16 02:22:43;;;;;;;7.03;2.33;;;11.50;69.00;;;;;;5017216;28;20185;-77
2022/04/16 02:25:10;;;;;;;2.40;2.27;;;11.50;69.20;;;;;;5016678;28;20235;-77
2022/04/16 02:27:36;;;;;;;3.70;2.03;;;11.50;69.60;;;;;;5010582;28;20582;-77
2022/04/16 02:30:06;;;;;;;4.03;2.50;;;11.50;69.90;;;;;;5011321;28;20184;-77
2022/04/16 02:32:35;;;;;;;2.70;2.55;;;11.50;68.20;;;;;;5012765;28;20174;-78
2022/04/16 02:35:01;;;;;;;5.30;2.50;;;11.50;69.10;;;;;;5009931;28;20192;-78
2022/04/16 02:37:27;;;;;;;2.37;2.27;;;11.50;70.10;;;;;;5009805;28;20217;-76
2022/04/16 02:39:53;;;;;;;2.93;2.63;;;11.50;70.30;;;;;;5013211;28;20625;-75
2022/04/16 02:42:19;;;;;;;2.73;2.37;;;11.50;70.50;;;;;;5010989;28;20290;-75
2022/04/16 02:47:30;;;;;;;2.10;2.00;;;11.50;69.60;;;;;;5014816;28;20584;-76
2022/04/16 02:49:56;;;;;;;2.77;1.97;;;11.50;69.40;;;;;;5012964;28;20185;-76
2022/04/16 02:52:22;;;;;;;2.60;2.43;;;11.50;69.40;;;;;;5012872;28;20604;-76
2022/04/16 02:54:48;;;;;;;1.93;1.80;;;11.50;69.50;;;;;;5009350;28;20189;-75
2022/04/16 02:57:14;;;;;;;3.23;2.07;;;11.50;69.30;;;;;;5011723;28;20242;-76
2022/04/16 02:59:40;;;;;;;3.50;2.33;;;11.40;69.20;;;;;;5008470;28;20215;-76
2022/04/16 03:02:06;;;;;;;2.13;2.00;;;11.40;70.10;;;;;;5009946;28;20235;-76
2022/04/16 03:04:32;;;;;;;1.90;1.80;;;11.40;69.70;;;;;;5008019;28;20276;-77
2022/04/16 03:06:58;;;;;;;4.43;2.33;;;11.40;69.80;;;;;;5014471;28;20216;-75
2022/04/16 03:09:25;;;;;;;2.07;1.97;;;11.30;69.60;;;;;;5006888;28;20185;-75
2022/04/16 03:11:51;;;;;;;3.00;2.47;;;11.20;68.80;;;;;;5006907;28;20212;-76
2022/04/16 03:19:45;;;;;;;4.00;2.53;;;11.10;67.90;;;;;;5011433;28;20246;-78
2022/04/16 03:22:15;;;;;;;2.43;1.67;;;11.00;68.00;;;;;;5010570;28;20211;-78
2022/04/16 03:24:41;;;;;;;10.63;2.60;;;11.10;69.60;;;;;;5005873;28;20189;-77
2022/04/16 03:27:07;;;;;;;5.10;2.37;;;11.10;69.40;;;;;;5013482;28;21503;-78
2022/04/16 03:29:34;;;;;;;2.67;2.47;;;11.10;70.00;;;;;;5024779;28;20180;-77
2022/04/16 03:32:00;;;;;;;2.97;1.93;;;11.10;70.20;;;;;;5007721;28;20181;-77
2022/04/16 03:34:25;;;;;;;2.07;1.80;;;11.10;69.90;;;;;;5013616;28;20250;-77
2022/04/16 03:36:51;;;;;;;2.30;2.20;;;11.10;70.50;;;;;;5010928;28;20258;-77
2022/04/16 03:39:17;;;;;;;3.17;2.40;;;11.00;70.20;;;;;;5008761;28;20181;-77
2022/04/16 03:41:42;;;;;;;2.53;2.40;;;11.00;69.60;;;;;;5011430;28;20547;-77
2022/04/16 03:44:08;;;;;;;3.03;2.83;;;11.00;69.90;;;;;;5009564;28;20179;-77
2022/04/16 03:46:34;;;;;;;3.07;2.87;;;10.90;70.40;;;;;;5009309;28;20620;-77
2022/04/16 03:48:59;;;;;;;3.87;2.77;;;10.90;71.40;;;;;;5011819;28;20248;-76
2022/04/16 03:51:26;;;;;;;2.73;2.30;;;11.00;71.30;;;;;;5014226;28;20196;-76
2022/04/16 03:53:52;;;;;;;2.67;2.47;;;11.00;71.10;;;;;;5010591;28;20220;-75
2022/04/16 04:01:46;;;;;;;2.50;2.30;;;10.90;71.70;;;;;;5006497;28;20272;-77
2022/04/16 04:04:12;;;;;;;2.30;2.10;;;11.00;71.70;;;;;;5010538;28;20276;-77
2022/04/16 04:06:38;;;;;;;2.57;2.47;;;11.00;71.80;;;;;;5009840;28;20921;-77
2022/04/16 04:09:04;;;;;;;4.97;2.87;;;11.00;71.60;;;;;;5010477;28;20184;-77
2022/04/16 04:11:30;;;;;;;3.20;2.40;;;11.10;72.10;;;;;;5009589;28;20188;-77
2022/04/16 04:13:55;;;;;;;1.70;1.70;;;11.00;72.00;;;;;;5011515;28;20184;-77
2022/04/16 04:16:22;;;;;;;3.70;2.20;;;11.00;72.00;;;;;;5011114;28;20212;-77
2022/04/16 04:18:48;;;;;;;1.90;1.80;;;11.00;71.80;;;;;;5008947;28;20224;-77
2022/04/16 04:21:14;;;;;;;3.23;2.60;;;10.90;70.80;;;;;;5012734;28;20183;-77
2022/04/16 04:23:39;;;;;;;3.47;2.70;;;11.00;70.90;;;;;;5011201;28;20191;-77
2022/04/16 04:26:05;;;;;;;2.83;2.40;;;11.00;70.70;;;;;;5013429;28;20184;-77
2022/04/16 04:28:30;;;;;;;2.30;2.20;;;11.00;70.80;;;;;;5007628;28;20627;-76
2022/04/16 04:30:56;;;;;;;2.40;2.30;;;11.00;70.90;;;;;;5009311;28;20181;-76
2022/04/16 04:33:22;;;;;;;2.47;2.27;;;11.00;71.10;;;;;;5003616;28;20179;-76
2022/04/16 04:35:50;;;;;;;2.70;2.50;;;11.10;71.30;;;;;;5011519;28;20874;-76
2022/04/16 04:38:16;;;;;;;5.33;2.83;;;11.10;71.20;;;;;;5010152;28;20216;-77
2022/04/16 04:40:41;;;;;;;2.57;2.47;;;11.10;71.30;;;;;;5012818;28;20188;-78
2022/04/16 04:43:07;;;;;;;2.57;2.47;;;11.20;71.60;;;;;;5010676;28;21967;-78
2022/04/16 04:45:33;;;;;;;4.50;2.67;;;11.20;71.60;;;;;;5010934;28;20235;-77
2022/04/16 04:47:59;;;;;;;3.20;3.03;;;11.30;71.80;;;;;;5012847;28;20292;-77
2022/04/16 04:50:24;;;;;;;7.47;3.40;;;11.30;71.90;;;;;;5012979;28;20675;-77
2022/04/16 04:52:50;;;;;;;3.10;2.90;;;11.40;71.80;;;;;;5012160;28;20177;-77
2022/04/16 04:55:16;;;;;;;2.93;2.80;;;11.40;71.60;;;;;;5015688;28;20185;-77
2022/04/16 04:57:42;;;;;;;5.43;3.97;;;11.50;71.60;;;;;;5013528;28;20220;-77
2022/04/16 05:00:10;;;;;;;10.37;3.17;;;11.50;72.20;;;;;;5016748;28;20270;-75
2022/04/16 05:02:47;;;;;;;7.37;3.50;;;11.50;71.70;;;;;;5014086;28;20185;-77
2022/04/16 05:05:14;;;;;;;5.20;4.10;;;11.60;71.50;;;;;;5007266;28;20279;-76
2022/04/16 05:07:40;;;;;;;13.70;3.87;;;11.60;71.90;;;;;;5009959;28;20706;-76
2022/04/16 05:10:07;;;;;;;3.23;3.00;;;11.70;72.40;;;;;;5015083;28;20264;-76
2022/04/16 05:12:33;;;;;;;3.97;3.70;;;11.70;71.90;;;;;;5009645;28;20258;-76
2022/04/16 05:14:58;;;;;;;13.90;4.27;;;11.80;72.60;;;;;;5015297;28;20192;-77
2022/04/16 05:17:24;;;;;;;7.33;4.43;;;11.80;72.90;;;;;;5011475;28;20692;-77
2022/04/16 05:19:50;;;;;;;9.63;5.00;;;11.80;72.40;;;;;;5009604;28;20260;-77
2022/04/16 05:22:18;;;;;;;4.57;4.20;;;11.90;71.80;;;;;;5012292;28;20181;-77
2022/04/16 05:24:45;;;;;;;6.60;4.63;;;11.90;71.10;;;;;;5014495;28;21079;-76
2022/04/16 05:27:11;;;;;;;5.90;4.47;;;11.90;71.40;;;;;;5007465;28;20196;-76
2022/04/16 05:32:33;;;;;;;5.07;4.57;;;12.00;70.70;;;;;;4990797;28;20269;-77
2022/04/16 05:34:58;;;;;;;9.70;3.60;;;12.10;69.70;;;;;;4992116;28;20236;-77
2022/04/16 05:37:24;;;;;;;7.17;4.10;;;12.10;69.80;;;;;;4984706;28;20309;-77
2022/04/16 05:39:50;;;;;;;9.07;3.70;;;12.20;69.90;;;;;;4986965;28;20252;-76
2022/04/16 05:42:15;;;;;;;12.20;4.60;;;12.20;69.80;;;;;;4987435;28;20281;-74
2022/04/16 05:44:41;;;;;;;4.43;4.00;;;12.30;69.70;;;;;;4990212;28;20208;-75
2022/04/16 05:47:07;;;;;;;4.97;3.97;;;12.30;69.50;;;;;;4988589;28;20190;-77
2022/04/16 05:49:32;;;;;;;3.83;3.53;;;12.40;69.70;;;;;;4989369;28;20739;-74
2022/04/16 05:51:59;;;;;;;4.33;3.93;;;12.50;69.30;;;;;;4987748;28;20247;-79
2022/04/16 05:54:25;;;;;;;4.30;3.72;;;12.50;69.40;;;;;;4989638;28;20201;-77
2022/04/16 05:56:50;;;;;;;4.43;3.70;;;12.60;68.80;;;;;;4987454;28;20789;-75
2022/04/16 05:59:16;;;;;;;5.82;3.22;;;12.80;68.10;;;;;;4985467;28;20185;-75
2022/04/16 06:01:43;;;;;;;2.38;2.17;;;12.90;67.80;;;;;;4966274;28;20186;-76
2022/04/16 06:04:09;;;;;;;2.10;2.00;;;13.00;65.00;;;;;;4971795;28;20295;-77
2022/04/16 06:06:34;;;;;;;2.70;2.05;;;13.00;63.40;;;;;;4987003;28;20190;-76
2022/04/16 06:09:00;;;;;;;2.03;1.55;;;13.20;63.50;;;;;;4996416;28;20208;-76
2022/04/16 06:11:28;;;;;;;2.17;2.08;;;13.40;62.90;;;;;;5011860;28;20223;-75
2022/04/16 06:13:54;;;;;;;4.05;1.73;;;13.50;62.80;;;;;;5008773;28;20189;-77
2022/04/16 06:16:19;;;;;;;1.88;1.63;;;13.60;62.80;;;;;;5012343;28;20187;-77
2022/04/16 06:18:45;;;;;;;2.25;2.15;;;13.80;63.10;;;;;;5009179;28;20227;-75
2022/04/16 06:21:11;;;;;;;7.38;1.73;;;13.90;62.30;;;;;;5009641;28;20173;-75
2022/04/16 06:23:37;;;;;;;2.22;1.83;;;14.10;61.30;;;;;;5009130;28;20185;-77
2022/04/16 06:26:02;;;;;;;1.85;1.40;;;14.30;61.20;;;;;;5009209;28;20185;-77
2022/04/16 06:28:28;;;;;;;1.95;1.80;;;14.30;60.40;;;;;;5012154;28;20238;-76
2022/04/16 06:30:54;;;;;;;2.75;2.55;;;14.30;59.60;;;;;;5009197;28;20184;-75
2022/04/16 06:33:20;;;;;;;8.02;2.08;;;14.50;60.00;;;;;;5014486;28;20278;-77
2022/04/16 06:35:45;;;;;;;4.88;1.63;;;14.60;59.70;;;;;;5011949;28;20308;-76
2022/04/16 06:38:11;;;;;;;2.20;2.10;;;14.70;59.50;;;;;;5009627;28;21029;-76
2022/04/16 06:40:37;;;;;;;3.95;1.40;;;14.80;59.00;;;;;;5013047;28;20251;-77
2022/04/16 06:43:02;;;;;;;2.00;1.75;;;14.90;59.30;;;;;;5007836;28;20181;-77
2022/04/16 06:45:28;;;;;;;1.65;1.58;;;15.00;58.90;;;;;;5007681;28;20292;-77
2022/04/16 06:47:54;;;;;;;1.63;1.63;;;15.10;58.60;;;;;;5007977;28;20192;-75
2022/04/16 06:50:20;;;;;;;2.13;2.03;;;15.10;58.90;;;;;;5009527;28;20266;-76
2022/04/16 06:52:45;;;;;;;1.90;1.80;;;15.20;58.80;;;;;;5010246;28;20623;-76
2022/04/16 06:55:11;;;;;;;1.98;1.85;;;15.20;58.60;;;;;;5009397;28;20271;-71
2022/04/16 06:57:37;;;;;;;2.47;2.25;;;15.20;58.80;;;;;;5011831;28;20711;-75
2022/04/16 07:00:07;;;;;;;2.30;2.13;;;15.20;58.90;;;;;;5002869;28;20185;-74
2022/04/16 07:02:33;;;;;;;2.20;1.92;;;15.30;58.50;;;;;;5005629;28;20620;-75
2022/04/16 07:04:59;;;;;;;3.28;1.98;;;15.40;58.70;;;;;;5012644;28;20854;-75
2022/04/16 07:07:24;;;;;;;2.22;2.13;;;15.50;58.50;;;;;;5011745;28;20200;-75
2022/04/16 07:09:50;;;;;;;2.13;2.03;;;15.60;58.00;;;;;;5009377;28;20855;-75
2022/04/16 07:12:17;;;;;;;5.63;1.88;;;15.70;57.60;;;;;;5005458;28;20698;-74
2022/04/16 07:14:43;;;;;;;3.22;2.30;;;15.80;57.50;;;;;;5014476;28;20176;-74
2022/04/16 07:17:09;;;;;;;4.82;2.40;;;15.90;57.80;;;;;;5007613;28;20585;-74
2022/04/16 07:19:35;;;;;;;3.08;2.88;;;16.00;57.80;;;;;;5018542;28;20180;-74
2022/04/16 07:22:02;;;;;;;3.53;2.95;;;16.10;58.20;;;;;;5006936;28;20256;-74
2022/04/16 07:24:28;;;;;;;2.88;2.78;;;16.20;58.00;;;;;;5013873;28;20260;-74
2022/04/16 07:26:54;;;;;;;2.53;2.22;;;16.30;58.20;;;;;;5006586;28;20970;-74
2022/04/16 07:29:21;;;;;;;2.55;2.40;;;16.40;58.20;;;;;;5010564;28;20189;-74
2022/04/16 07:31:47;;;;;;;2.75;2.35;;;16.40;57.50;;;;;;5007714;28;20177;-75
2022/04/16 07:34:13;;;;;;;2.78;2.58;;;16.50;57.70;;;;;;5008019;28;20203;-74
2022/04/16 07:36:38;;;;;;;3.00;2.65;;;16.70;57.70;;;;;;5005956;28;20604;-74
2022/04/16 07:39:04;;;;;;;3.80;2.80;;;16.80;58.20;;;;;;5008381;28;20177;-74
2022/04/16 07:41:30;;;;;;;3.03;2.08;;;16.90;57.40;;;;;;5009015;28;20856;-74
2022/04/16 07:44:02;;;;;;;2.45;2.25;;;16.90;57.70;;;;;;5005502;28;20229;-74
2022/04/16 07:46:32;;;;;;;4.75;2.40;;;16.90;57.80;;;;;;5014892;28;20192;-73
2022/04/16 07:48:58;;;;;;;2.72;2.53;;;16.90;57.70;;;;;;5011541;28;20611;-74
2022/04/16 07:51:25;;;;;;;2.92;2.58;;;16.80;57.60;;;;;;5007203;28;20536;-74
2022/04/16 07:53:55;;;;;;;2.55;2.20;;;16.90;57.10;;;;;;5008372;28;20172;-75
2022/04/16 07:56:22;;;;;;;2.17;2.17;;;17.00;57.10;;;;;;5010407;28;20197;-74
2022/04/16 07:58:47;;;;;;;3.30;2.50;;;17.10;57.50;;;;;;5010882;28;20216;-74
2022/04/16 08:01:14;;;;;;;3.50;2.28;;;16.90;57.50;;;;;;5008082;28;20220;-75
2022/04/16 08:03:40;;;;;;;5.95;2.53;;;16.90;57.60;;;;;;5010656;28;20185;-74
2022/04/16 08:06:06;;;;;;;4.63;2.08;;;17.00;57.40;;;;;;5011933;28;20188;-73
2022/04/16 08:08:32;;;;;;;2.97;2.78;;;16.90;57.70;;;;;;5011034;28;20184;-73
2022/04/16 08:10:57;;;;;;;3.33;2.42;;;16.90;57.80;;;;;;5011993;28;20224;-73
2022/04/16 08:13:23;;;;;;;2.92;2.63;;;17.00;57.50;;;;;;5010509;28;20250;-73
2022/04/16 08:15:50;;;;;;;2.30;2.20;;;17.10;57.80;;;;;;5009107;28;20189;-72
2022/04/16 08:18:16;;;;;;;2.33;2.17;;;17.10;57.80;;;;;;5010063;28;20231;-74
2022/04/16 08:20:43;;;;;;;7.32;2.50;;;17.20;58.50;;;;;;5013457;28;20176;-74
2022/04/16 08:23:08;;;;;;;9.43;2.90;;;17.30;57.00;;;;;;5009798;28;20214;-74
2022/04/16 08:28:01;;;;;;;2.10;2.00;;;17.50;57.30;;;;;;5012748;28;20227;-76
2022/04/16 08:30:27;;;;;;;6.50;2.10;;;17.60;57.10;;;;;;5009124;28;20185;-75
2022/04/16 08:32:53;;;;;;;2.50;2.35;;;17.70;56.90;;;;;;5013964;28;20199;-74
2022/04/16 08:35:19;;;;;;;6.88;2.72;;;17.80;57.20;;;;;;5010928;28;20729;-74
2022/04/16 08:37:47;;;;;;;2.80;2.55;;;17.90;56.90;;;;;;5011299;28;20288;-74
2022/04/16 08:40:14;;;;;;;3.00;2.75;;;17.90;56.80;;;;;;5012030;28;20268;-74
2022/04/16 08:42:41;;;;;;;2.47;2.38;;;18.00;56.50;;;;;;5011055;28;20687;-74
2022/04/16 08:45:09;;;;;;;2.15;2.05;;;18.10;56.00;;;;;;5012838;28;20177;-74
2022/04/16 08:47:35;;;;;;;3.80;2.40;;;18.10;55.80;;;;;;5014551;28;20904;-74
2022/04/16 08:50:05;;;;;;;2.40;2.20;;;18.20;55.60;;;;;;5005926;28;20181;-74
2022/04/16 08:52:33;;;;;;;2.17;2.08;;;18.30;55.50;;;;;;5010370;28;20184;-74
2022/04/16 08:55:00;;;;;;;2.58;2.20;;;18.50;55.40;;;;;;5014706;28;20188;-74
2022/04/16 08:57:26;;;;;;;4.05;2.60;;;18.70;55.20;;;;;;5011001;28;20240;-74
2022/04/16 08:59:57;;;;;;;4.32;2.45;;;19.00;55.10;;;;;;5011150;28;20223;-75
2022/04/16 09:02:24;;;;;;;1.90;1.80;;;19.20;53.40;;;;;;5011418;28;20665;-75
2022/04/16 09:05:04;;;;;;;2.05;1.95;;;19.50;53.00;;;;;;5008973;28;20277;-75
2022/04/16 09:07:30;;;;;;;2.30;2.20;;;19.80;52.70;;;;;;5007651;28;20679;-75
2022/04/16 09:10:06;;;;;;;3.67;2.10;;;20.10;51.60;;;;;;5013739;28;20258;-76
2022/04/16 09:12:37;;;;;;;4.10;1.92;;;20.30;51.30;;;;;;5006004;28;20184;-75
2022/04/16 09:15:10;;;;;;;3.90;2.55;;;20.60;51.10;;;;;;5014304;28;20188;-75
2022/04/16 09:17:37;;;;;;;2.53;2.38;;;20.90;51.30;;;;;;5009073;28;20207;-74
2022/04/16 09:20:12;;;;;;;2.40;2.30;;;21.30;51.00;;;;;;5013762;28;20196;-74
2022/04/16 09:22:39;;;;;;;2.45;2.35;;;21.70;50.40;;;;;;5009654;28;20176;-74
2022/04/16 09:25:17;;;;;;;5.28;3.47;;;22.30;49.50;;;;;;5012856;28;20192;-74
2022/04/16 09:27:50;;;;;;;2.83;1.95;;;22.80;49.30;;;;;;5011611;28;20189;-74
2022/04/16 09:30:28;;;;;;;2.70;2.53;;;23.10;48.40;;;;;;5013677;28;20576;-74
2022/04/16 09:32:56;;;;;;;2.25;2.15;;;23.50;48.30;;;;;;5010042;28;20266;-74
2022/04/16 09:35:33;;;;;;;4.22;2.80;;;23.70;47.90;;;;;;5014743;28;20678;-74
2022/04/16 09:38:04;;;;;;;2.58;2.42;;;23.90;48.00;;;;;;5015466;28;20227;-75
2022/04/16 09:40:34;;;;;;;2.20;2.20;;;24.30;48.20;;;;;;5012037;28;20184;-74
2022/04/16 09:43:04;;;;;;;3.58;2.63;;;24.70;47.70;;;;;;5016032;28;20729;-73
2022/04/16 09:45:30;;;;;;;6.03;2.65;;;25.20;47.40;;;;;;5015817;28;20184;-76
2022/04/16 09:47:56;;;;;;;5.57;2.30;;;25.60;46.70;;;;;;5010332;28;20655;-75
2022/04/16 09:50:24;;;;;;;3.03;1.92;;;26.00;45.60;;;;;;5013845;28;20212;-75
2022/04/16 09:53:03;;;;;;;3.22;2.40;;;26.50;45.80;;;;;;5013991;28;20191;-74
2022/04/16 09:55:29;;;;;;;2.78;2.58;;;26.90;44.90;;;;;;5010777;28;20189;-74
2022/04/16 09:57:58;;;;;;;2.67;2.28;;;27.20;43.70;;;;;;5017465;28;20227;-74
2022/04/16 10:00:25;;;;;;;2.92;2.67;;;27.30;45.00;;;;;;5012331;28;20454;-74
2022/04/16 10:02:53;;;;;;;2.60;2.40;;;27.50;44.10;;;;;;5014799;28;20195;-73
2022/04/16 10:05:21;;;;;;;2.60;2.17;;;27.70;44.90;;;;;;5017837;28;20619;-75
2022/04/16 10:07:47;;;;;;;2.20;2.10;;;28.00;43.90;;;;;;5011999;28;20193;-75
2022/04/16 10:10:25;;;;;;;5.22;2.47;;;28.00;43.90;;;;;;5011698;28;20181;-73
2022/04/16 10:13:04;;;;;;;6.57;2.83;;;28.10;44.00;;;;;;5010834;28;20234;-76
2022/04/16 10:15:54;;;;;;;2.63;2.53;;;28.20;43.90;;;;;;5014247;28;20181;-75
2022/04/16 10:18:21;;;;;;;6.05;2.97;;;28.40;44.30;;;;;;5010005;28;20689;-75
2022/04/16 10:20:57;;;;;;;2.45;2.30;;;28.50;43.40;;;;;;5010544;28;20181;-75
2022/04/16 10:23:32;;;;;;;2.92;2.63;;;28.60;43.50;;;;;;5012501;28;20180;-77
2022/04/16 10:26:09;;;;;;;2.60;2.40;;;28.70;43.80;;;;;;5011321;28;20678;-76
2022/04/16 10:28:52;;;;;;;4.97;2.47;;;28.80;42.60;;;;;;5011243;28;20270;-74
2022/04/16 10:31:41;;;;;;;3.47;3.17;;;28.80;42.90;;;;;;5015365;28;20195;-74
2022/04/16 10:34:08;;;;;;;2.45;2.35;;;28.80;42.40;;;;;;5010198;28;21025;-76
2022/04/16 10:36:37;;;;;;;5.63;2.60;;;28.90;42.80;;;;;;5015972;28;20297;-76
2022/04/16 10:39:23;;;;;;;2.72;2.60;;;29.00;42.20;;;;;;5010437;28;20255;-75
2022/04/16 10:42:00;;;;;;;2.47;2.38;;;28.90;42.10;;;;;;5010354;28;20181;-74
2022/04/16 10:44:27;;;;;;;2.70;2.50;;;28.80;42.50;;;;;;5007122;28;20184;-75
2022/04/16 10:46:54;;;;;;;2.60;2.50;;;28.70;42.90;;;;;;5010450;28;20204;-75
2022/04/16 10:49:23;;;;;;;3.45;2.65;;;28.60;42.70;;;;;;5007866;28;20177;-74
2022/04/16 10:51:55;;;;;;;2.58;2.47;;;28.50;42.80;;;;;;5012491;28;20307;-74
2022/04/16 10:54:34;;;;;;;3.70;2.53;;;28.70;42.60;;;;;;5009342;28;20662;-74
2022/04/16 10:57:01;;;;;;;2.78;2.67;;;28.80;42.70;;;;;;5013300;28;20181;-74
2022/04/16 10:59:39;;;;;;;2.47;2.45;;;28.80;42.00;;;;;;5012276;28;20180;-74
2022/04/16 11:02:25;;;;;;;2.67;2.58;;;28.50;42.40;;;;;;5006389;28;20239;-74
2022/04/16 11:05:06;;;;;;;3.05;2.70;;;28.30;42.60;;;;;;5007825;28;20204;-74
2022/04/16 11:07:36;;;;;;;3.90;2.17;;;28.30;43.10;;;;;;5008286;28;20180;-74
2022/04/16 11:10:04;;;;;;;2.45;2.35;;;28.30;43.30;;;;;;5009687;28;20708;-74
2022/04/16 11:12:29;;;;;;;2.80;2.55;;;28.30;43.30;;;;;;5010905;28;20263;-74
2022/04/16 11:14:56;;;;;;;2.67;2.40;;;28.30;42.90;;;;;;5007574;28;20186;-74
2022/04/16 11:17:22;;;;;;;2.88;2.50;;;28.30;42.90;;;;;;5005636;28;20212;-74
2022/04/16 11:20:02;;;;;;;2.50;2.40;;;28.50;43.00;;;;;;5009449;28;20177;-75
2022/04/16 11:22:28;;;;;;;9.05;2.63;;;28.50;43.20;;;;;;5010814;28;20188;-73
2022/04/16 11:24:55;;;;;;;3.40;2.63;;;28.80;43.30;;;;;;5007681;28;20627;-74
2022/04/16 11:36:00;;;;;;;2.30;2.20;;;29.70;42.20;;;;;;5008774;28;20261;-76
2022/04/16 11:38:30;;;;;;;2.63;2.53;;;30.00;41.90;;;;;;5008884;28;20217;-76
2022/04/16 11:41:00;;;;;;;2.63;2.53;;;30.10;42.00;;;;;;5010763;28;20188;-76
2022/04/16 11:43:30;;;;;;;2.42;2.33;;;30.30;42.10;;;;;;5012190;28;20607;-75
2022/04/16 11:45:57;;;;;;;2.35;2.25;;;30.50;41.50;;;;;;5009304;28;20184;-77
2022/04/16 11:48:22;;;;;;;5.75;2.47;;;30.60;41.40;;;;;;5008888;28;20196;-75
2022/04/16 11:50:49;;;;;;;2.85;2.40;;;30.60;41.10;;;;;;5006967;28;20718;-75
2022/04/16 11:53:15;;;;;;;2.83;2.65;;;30.70;40.80;;;;;;5009364;28;20890;-76
2022/04/16 11:55:45;;;;;;;2.28;2.05;;;30.70;40.90;;;;;;5007036;28;21005;-78
2022/04/16 11:58:11;;;;;;;3.42;2.30;;;30.70;40.30;;;;;;5005414;28;20262;-76
2022/04/16 12:00:55;;;;;;;2.00;1.90;;;30.60;40.40;;;;;;5009096;28;20527;-77
2022/04/16 12:03:21;;;;;;;2.13;2.03;;;30.30;41.20;;;;;;5012013;28;20291;-77
2022/04/16 12:05:48;;;;;;;3.33;1.90;;;30.50;41.50;;;;;;5012559;28;20192;-75
2022/04/16 12:08:17;;;;;;;3.25;2.40;;;30.70;41.50;;;;;;5009646;28;20188;-75
2022/04/16 12:10:45;;;;;;;2.55;2.42;;;30.70;41.20;;;;;;5010693;28;20181;-75
2022/04/16 12:13:12;;;;;;;2.33;2.22;;;30.80;41.00;;;;;;5007890;28;20185;-76
2022/04/16 12:15:43;;;;;;;2.17;2.10;;;30.90;40.80;;;;;;5004851;28;20189;-74
2022/04/16 12:18:10;;;;;;;2.10;2.00;;;31.10;40.90;;;;;;5009424;28;20232;-74
2022/04/16 12:20:43;;;;;;;3.13;2.58;;;31.30;40.40;;;;;;5010912;28;20188;-76
2022/04/16 12:23:13;;;;;;;2.97;2.58;;;31.50;40.10;;;;;;5007368;28;20576;-75
2022/04/16 12:25:41;;;;;;;2.70;2.58;;;31.50;40.30;;;;;;5008004;28;20952;-75
2022/04/16 12:28:14;;;;;;;2.17;2.15;;;31.50;40.30;;;;;;5007453;28;20176;-75
2022/04/16 12:30:47;;;;;;;3.28;2.80;;;31.50;40.20;;;;;;5006455;28;20177;-75
2022/04/16 12:33:13;;;;;;;2.00;1.90;;;31.70;40.80;;;;;;5009738;28;20192;-74
2022/04/16 12:35:40;;;;;;;2.65;2.45;;;31.70;39.40;;;;;;5007314;28;20185;-75
2022/04/16 12:38:07;;;;;;;2.63;2.42;;;31.80;39.40;;;;;;5010030;28;20830;-73
2022/04/16 12:40:35;;;;;;;2.03;1.92;;;31.70;39.40;;;;;;5011828;28;20192;-75
2022/04/16 12:43:01;;;;;;;2.60;2.25;;;31.60;40.50;;;;;;5008590;28;20188;-74
2022/04/16 12:45:30;;;;;;;2.45;2.42;;;31.60;40.00;;;;;;5012292;28;20206;-74
2022/04/16 12:47:56;;;;;;;3.15;2.53;;;31.60;40.40;;;;;;5008164;28;20663;-76
2022/04/16 12:50:22;;;;;;;2.92;2.72;;;31.60;40.60;;;;;;5009327;28;20184;-76
2022/04/16 12:52:48;;;;;;;2.65;2.55;;;31.50;40.90;;;;;;5004106;28;20177;-75
2022/04/16 12:55:15;;;;;;;3.03;2.38;;;31.50;41.10;;;;;;5012508;28;20185;-75
2022/04/16 12:57:43;;;;;;;2.40;2.30;;;31.20;40.50;;;;;;5007844;28;20205;-75
2022/04/16 13:00:11;;;;;;;2.70;2.60;;;31.10;41.00;;;;;;5009429;28;20594;-75
2022/04/16 13:02:44;;;;;;;2.45;2.33;;;30.90;40.80;;;;;;5010980;28;20173;-75
2022/04/16 13:05:11;;;;;;;3.88;2.08;;;30.50;41.50;;;;;;5011785;28;20196;-77
2022/04/16 13:07:38;;;;;;;4.47;2.67;;;30.50;41.00;;;;;;5014601;28;20184;-75
2022/04/16 13:10:05;;;;;;;3.72;2.05;;;30.30;41.40;;;;;;5010292;28;20223;-75
2022/04/16 13:12:31;;;;;;;2.65;2.50;;;30.00;41.90;;;;;;5011221;28;20280;-75
2022/04/16 13:14:57;;;;;;;2.58;2.47;;;29.70;42.20;;;;;;5008857;28;20834;-75